Time;durP1;ratioP1;P1;durP2;ratioP2;P2;SDS_P1;SDS_P2;PMS_P1;PMS_P2;Temp;Humidity;BMP_temperature;BMP_pressure;BME280_temperature;BME280_humidity;BME280_pressure;Samples;Min_cycle;Max_cycle;Signal;HPM_P1;HPM_P2
2021/05/27 00:02:11;;;;;;;6.05;3.70;;;358.90;2201.60;;;;;;5082717;28;20031;-71
2021/05/27 00:04:38;;;;;;;9.30;3.67;;;358.90;2176.00;;;;;;5085306;28;20381;-70
2021/05/27 00:07:03;;;;;;;6.45;3.30;;;358.80;2176.00;;;;;;5086464;28;20106;-70
2021/05/27 00:09:29;;;;;;;4.88;3.15;;;358.70;2176.00;;;;;;5084804;28;20103;-67
2021/05/27 00:11:55;;;;;;;6.22;3.40;;;358.60;2201.60;;;;;;5084008;28;20021;-70
2021/05/27 00:14:21;;;;;;;6.05;2.92;;;358.50;2227.20;;;;;;5083945;28;20477;-68
2021/05/27 00:16:47;;;;;;;5.97;2.90;;;358.40;2227.20;;;;;;5085038;28;20016;-66
2021/05/27 00:19:14;;;;;;;5.95;2.75;;;358.40;2252.80;;;;;;5083659;28;20870;-70
2021/05/27 00:21:40;;;;;;;5.47;2.67;;;358.50;2252.80;;;;;;5092150;28;20408;-68
2021/05/27 00:24:07;;;;;;;4.72;2.72;;;358.40;2252.80;;;;;;5088344;28;20086;-67
2021/05/27 00:26:33;;;;;;;7.35;2.67;;;333.70;2252.80;;;;;;5082264;28;20035;-69
2021/05/27 00:28:59;;;;;;;5.68;3.33;;;358.40;2252.80;;;;;;5084629;28;20107;-68
2021/05/27 00:31:25;;;;;;;5.90;2.72;;;333.60;2252.80;;;;;;5083583;28;20044;-70
2021/05/27 00:33:51;;;;;;;5.25;2.72;;;333.70;2278.40;;;;;;5084271;28;20032;-69
2021/05/27 00:36:16;;;;;;;5.78;2.72;;;333.70;2252.80;;;;;;5083464;28;20378;-64
2021/05/27 00:38:42;;;;;;;6.05;2.80;;;333.60;2252.80;;;;;;5083110;28;20027;-63
2021/05/27 00:41:08;;;;;;;4.13;2.60;;;333.60;2252.80;;;;;;5077302;28;20064;-69
2021/05/27 00:43:33;;;;;;;6.57;2.90;;;333.60;2278.40;;;;;;5083610;28;20031;-71
2021/05/27 00:45:59;;;;;;;5.55;2.67;;;333.60;2252.80;;;;;;5084170;28;20027;-71
2021/05/27 00:51:09;;;;;;;6.03;2.60;;;333.60;2252.80;;;;;;5094806;28;20034;-70
2021/05/27 00:53:35;;;;;;;6.43;2.90;;;333.60;2252.80;;;;;;5094716;28;20040;-64
2021/05/27 00:56:01;;;;;;;5.13;2.25;;;333.60;2278.40;;;;;;5094644;28;20537;-71
2021/05/27 00:58:27;;;;;;;6.40;2.90;;;333.60;2278.40;;;;;;5094764;28;20069;-69
2021/05/27 01:00:53;;;;;;;5.40;2.85;;;333.60;2252.80;;;;;;5094906;28;20153;-71
2021/05/27 01:03:19;;;;;;;7.75;3.13;;;333.60;2252.80;;;;;;5094480;28;20110;-71
2021/05/27 01:05:45;;;;;;;6.32;3.10;;;333.60;2252.80;;;;;;5094718;28;20028;-68
2021/05/27 01:08:11;;;;;;;7.45;2.80;;;333.70;2252.80;;;;;;5094648;28;20043;-66
2021/05/27 01:10:37;;;;;;;6.07;3.20;;;333.70;2252.80;;;;;;5094249;28;20478;-71
2021/05/27 01:13:03;;;;;;;5.40;2.90;;;333.70;2252.80;;;;;;5094166;28;20047;-71
2021/05/27 01:18:00;;;;;;;5.57;2.90;;;333.50;2227.20;;;;;;5094348;28;20022;-71
2021/05/27 01:20:27;;;;;;;5.70;2.70;;;333.40;2227.20;;;;;;5094349;28;20121;-72
2021/05/27 01:22:54;;;;;;;5.47;3.10;;;333.40;2252.80;;;;;;5092873;28;20035;-72
2021/05/27 01:25:20;;;;;;;7.90;3.30;;;333.30;2252.80;;;;;;5094194;28;20052;-71
2021/05/27 01:27:46;;;;;;;5.78;3.03;;;333.30;2278.40;;;;;;5094094;28;20489;-72
2021/05/27 01:30:12;;;;;;;5.80;3.40;;;333.30;2278.40;;;;;;5094016;28;20044;-72
2021/05/27 01:32:38;;;;;;;9.18;3.42;;;333.30;2278.40;;;;;;5093968;28;20024;-72
2021/05/27 01:35:12;;;;;;;4.80;3.10;;;333.30;2304.00;;;;;;5094028;28;20031;-72
2021/05/27 01:37:38;;;;;;;6.47;3.00;;;333.30;2304.00;;;;;;5092931;28;20508;-72
2021/05/27 01:40:05;;;;;;;6.82;3.33;;;333.30;2304.00;;;;;;5093814;28;20028;-73
2021/05/27 01:42:30;;;;;;;7.72;3.70;;;333.30;2304.00;;;;;;5093864;28;20024;-71
2021/05/27 01:44:56;;;;;;;7.30;3.72;;;333.30;2304.00;;;;;;5093542;28;20054;-70
2021/05/27 01:47:22;;;;;;;8.32;3.70;;;333.30;2304.00;;;;;;5094117;28;20032;-73
2021/05/27 01:49:47;;;;;;;7.65;3.90;;;333.20;2304.00;;;;;;5093769;28;20036;-73
2021/05/27 01:52:13;;;;;;;7.22;3.90;;;333.20;2329.60;;;;;;5093216;28;20024;-70
2021/05/27 01:54:39;;;;;;;7.05;3.70;;;333.10;2329.60;;;;;;5094202;28;20024;-73
2021/05/27 01:57:06;;;;;;;6.35;3.17;;;333.20;2329.60;;;;;;5093713;28;20030;-73
2021/05/27 01:59:31;;;;;;;9.82;3.03;;;333.20;2278.40;;;;;;5093711;28;20032;-75
2021/05/27 02:01:57;;;;;;;6.45;2.83;;;333.10;2252.80;;;;;;5093975;28;20027;-72
2021/05/27 02:04:23;;;;;;;6.32;2.75;;;333.00;2227.20;;;;;;5093851;28;20121;-74
2021/05/27 02:06:49;;;;;;;4.72;2.63;;;333.00;2201.60;;;;;;5093179;28;20032;-67
2021/05/27 02:09:15;;;;;;;6.82;3.22;;;332.90;2227.20;;;;;;5093687;28;20039;-73
2021/05/27 02:11:45;;;;;;;6.78;3.33;;;332.80;2252.80;;;;;;5093503;28;20020;-71
2021/05/27 02:14:13;;;;;;;8.30;3.50;;;332.80;2278.40;;;;;;5093457;28;20488;-69
2021/05/27 02:16:40;;;;;;;6.95;3.13;;;332.80;2304.00;;;;;;5093475;28;20025;-73
2021/05/27 02:19:07;;;;;;;6.50;3.20;;;332.80;2304.00;;;;;;5093586;28;20020;-67
2021/05/27 02:21:33;;;;;;;8.25;3.22;;;332.80;2329.60;;;;;;5093027;28;20028;-71
2021/05/27 02:24:00;;;;;;;6.82;3.45;;;332.80;2329.60;;;;;;5093001;28;20028;-72
2021/05/27 02:26:28;;;;;;;7.85;3.60;;;308.10;2304.00;;;;;;5093474;28;20453;-73
2021/05/27 02:28:54;;;;;;;6.70;3.60;;;308.10;2304.00;;;;;;5093338;28;20027;-73
2021/05/27 02:31:21;;;;;;;6.03;3.17;;;308.10;2304.00;;;;;;5093518;28;20118;-74
2021/05/27 02:33:49;;;;;;;7.15;3.30;;;308.00;2304.00;;;;;;5093501;28;20373;-71
2021/05/27 02:36:15;;;;;;;6.55;3.10;;;308.00;2304.00;;;;;;5093460;28;20024;-72
2021/05/27 02:38:41;;;;;;;6.38;2.70;;;308.00;2304.00;;;;;;5092945;28;20043;-72
2021/05/27 02:41:07;;;;;;;5.78;2.97;;;307.90;2304.00;;;;;;5093359;28;20476;-72
2021/05/27 02:43:33;;;;;;;5.43;3.10;;;307.90;2304.00;;;;;;5093332;28;20560;-72
2021/05/27 02:46:00;;;;;;;5.60;3.10;;;307.90;2304.00;;;;;;5093444;28;20016;-72
2021/05/27 02:48:26;;;;;;;6.22;3.22;;;307.90;2304.00;;;;;;5093820;28;20031;-72
2021/05/27 02:50:51;;;;;;;4.68;2.97;;;307.90;2304.00;;;;;;5093421;28;20028;-72
2021/05/27 02:53:17;;;;;;;6.90;3.10;;;307.90;2304.00;;;;;;5093514;28;20031;-73
2021/05/27 02:55:43;;;;;;;7.38;3.20;;;307.90;2304.00;;;;;;5093290;28;20065;-73
2021/05/27 02:58:09;;;;;;;7.75;3.25;;;307.90;2304.00;;;;;;5093133;28;20031;-70
2021/05/27 03:00:35;;;;;;;8.45;3.28;;;307.90;2304.00;;;;;;5092648;28;20028;-72
2021/05/27 03:03:00;;;;;;;8.23;3.25;;;307.90;2304.00;;;;;;5094043;28;20508;-72
2021/05/27 03:05:26;;;;;;;5.63;3.40;;;307.90;2278.40;;;;;;5096647;28;20466;-71
2021/05/27 03:07:52;;;;;;;6.75;3.42;;;308.00;2278.40;;;;;;5096820;28;20461;-72
2021/05/27 03:10:17;;;;;;;5.32;3.30;;;307.90;2278.40;;;;;;5096890;28;20374;-72
2021/05/27 03:12:44;;;;;;;6.75;3.67;;;308.00;2278.40;;;;;;5096658;28;20024;-72
2021/05/27 03:15:10;;;;;;;6.95;3.67;;;308.00;2278.40;;;;;;5096890;28;20031;-72
2021/05/27 03:17:36;;;;;;;9.15;3.58;;;308.00;2278.40;;;;;;5096705;28;20351;-72
2021/05/27 03:20:03;;;;;;;9.18;3.70;;;308.00;2278.40;;;;;;5096559;28;20082;-72
2021/05/27 03:22:28;;;;;;;6.05;3.40;;;308.00;2278.40;;;;;;5096619;28;20435;-72
2021/05/27 03:24:54;;;;;;;7.93;3.30;;;308.00;2278.40;;;;;;5096610;28;20059;-72
2021/05/27 03:27:20;;;;;;;5.82;3.50;;;308.00;2278.40;;;;;;5096463;28;20021;-72
2021/05/27 03:29:46;;;;;;;5.82;3.60;;;308.00;2278.40;;;;;;5096384;28;20036;-72
2021/05/27 03:32:11;;;;;;;6.78;3.70;;;308.10;2278.40;;;;;;5096485;28;20082;-71
2021/05/27 03:34:37;;;;;;;6.72;4.10;;;308.10;2278.40;;;;;;5095841;28;20024;-72
2021/05/27 03:37:03;;;;;;;10.63;4.97;;;332.80;2304.00;;;;;;5096451;28;20077;-72
2021/05/27 03:39:28;;;;;;;7.47;4.20;;;332.80;2278.40;;;;;;5096227;28;20016;-72
2021/05/27 03:41:54;;;;;;;6.68;3.78;;;332.90;2278.40;;;;;;5096201;28;20111;-72
2021/05/27 03:44:20;;;;;;;9.10;3.90;;;332.90;2278.40;;;;;;5096193;28;20062;-72
2021/05/27 03:46:46;;;;;;;6.63;3.75;;;332.90;2252.80;;;;;;5096105;28;20024;-72
2021/05/27 03:49:11;;;;;;;8.18;3.63;;;333.00;2252.80;;;;;;5096222;28;20527;-72
2021/05/27 03:51:37;;;;;;;7.85;3.78;;;333.00;2252.80;;;;;;5096204;28;20461;-72
2021/05/27 03:54:04;;;;;;;7.60;3.40;;;333.10;2252.80;;;;;;5096249;28;20107;-72
2021/05/27 03:56:30;;;;;;;7.63;3.58;;;333.10;2252.80;;;;;;5095668;28;20027;-72
2021/05/27 04:01:40;;;;;;;;;;;333.10;2227.20;;;;;;5096408;28;20437;-72
2021/05/27 04:09:34;;;;;;;5.33;3.57;;;333.40;2227.20;;;;;;5095574;28;20058;-72
2021/05/27 04:17:40;;;;;;;7.88;3.90;;;333.40;2227.20;;;;;;5073228;28;20047;-71
2021/05/27 04:20:07;;;;;;;6.43;3.70;;;333.40;2227.20;;;;;;5072967;28;20024;-72
2021/05/27 04:22:33;;;;;;;7.72;3.92;;;333.60;2227.20;;;;;;5072879;28;20029;-73
2021/05/27 04:24:59;;;;;;;7.40;4.20;;;333.60;2176.00;;;;;;5072950;28;20387;-73
2021/05/27 04:27:25;;;;;;;5.28;3.53;;;333.70;2176.00;;;;;;5073093;28;20050;-72
2021/05/27 04:29:54;;;;;;;9.75;4.05;;;333.70;2176.00;;;;;;5072811;28;20025;-71
2021/05/27 04:35:05;;;;;;;8.00;3.83;;;358.50;2176.00;;;;;;5073079;28;20116;-71
2021/05/27 04:37:31;;;;;;;7.38;3.97;;;358.50;2150.40;;;;;;5072887;28;20431;-72
2021/05/27 04:39:56;;;;;;;6.88;4.03;;;358.50;2150.40;;;;;;5072585;28;20103;-72
2021/05/27 04:42:22;;;;;;;7.60;3.60;;;358.60;2176.00;;;;;;5072602;28;20028;-70
2021/05/27 04:44:48;;;;;;;6.07;3.80;;;358.70;2176.00;;;;;;5072270;28;20516;-71
2021/05/27 04:47:13;;;;;;;5.88;3.40;;;358.70;2176.00;;;;;;5072177;28;20455;-71
2021/05/27 04:49:39;;;;;;;10.05;3.85;;;358.90;2150.40;;;;;;5072807;28;20028;-70
2021/05/27 04:52:06;;;;;;;6.50;3.83;;;358.90;2150.40;;;;;;5091051;28;20488;-69
2021/05/27 04:54:32;;;;;;;8.90;4.30;;;359.00;2124.80;;;;;;5095008;28;20048;-72
2021/05/27 04:56:57;;;;;;;7.50;4.22;;;359.00;2124.80;;;;;;5095008;28;20104;-72
2021/05/27 04:59:23;;;;;;;9.02;4.57;;;359.10;2124.80;;;;;;5094544;28;20028;-72
2021/05/27 05:01:49;;;;;;;9.15;4.53;;;359.20;2150.40;;;;;;5094460;28;20032;-71
2021/05/27 05:04:15;;;;;;;8.75;4.35;;;384.00;2124.80;;;;;;5094531;28;20120;-72
2021/05/27 05:06:40;;;;;;;9.90;4.15;;;384.00;2124.80;;;;;;5094500;28;20050;-67
2021/05/27 05:09:06;;;;;;;8.75;4.10;;;384.00;2124.80;;;;;;5094666;28;20032;-73
2021/05/27 05:11:32;;;;;;;8.57;4.47;;;384.20;2150.40;;;;;;5094466;28;20032;-74
2021/05/27 05:13:57;;;;;;;6.35;4.78;;;384.20;2124.80;;;;;;5093979;28;20028;-73
2021/05/27 05:16:23;;;;;;;9.30;4.47;;;384.30;2124.80;;;;;;5094194;28;20038;-72
2021/05/27 05:18:49;;;;;;;7.22;4.32;;;384.30;2124.80;;;;;;5094492;28;20024;-73
2021/05/27 05:21:14;;;;;;;7.65;4.50;;;384.40;2150.40;;;;;;5094286;28;20044;-74
2021/05/27 05:23:40;;;;;;;10.43;4.60;;;384.50;2124.80;;;;;;5092764;28;20097;-73
2021/05/27 05:26:06;;;;;;;7.90;4.80;;;384.60;2124.80;;;;;;5093825;28;20024;-69
2021/05/27 05:28:31;;;;;;;9.13;5.03;;;384.70;2124.80;;;;;;5094218;28;20032;-74
2021/05/27 05:30:57;;;;;;;9.95;5.15;;;384.80;2124.80;;;;;;5093703;28;20059;-74
2021/05/27 05:33:23;;;;;;;10.20;5.10;;;384.80;2124.80;;;;;;5094316;28;20531;-74
2021/05/27 05:35:48;;;;;;;13.05;5.30;;;384.90;2124.80;;;;;;5093973;28;20027;-73
2021/05/27 05:38:14;;;;;;;9.23;5.70;;;409.60;2150.40;;;;;;5094185;28;20039;-71
2021/05/27 05:40:40;;;;;;;7.88;5.75;;;409.70;2124.80;;;;;;5094005;28;20077;-74
2021/05/27 05:43:05;;;;;;;10.80;5.93;;;409.70;2150.40;;;;;;5094126;28;20047;-74
2021/05/27 05:45:31;;;;;;;11.50;5.85;;;409.80;2150.40;;;;;;5093906;28;20020;-74
2021/05/27 05:47:59;;;;;;;8.52;5.65;;;410.00;2124.80;;;;;;5093969;28;20033;-71
2021/05/27 05:53:11;;;;;;;9.32;5.97;;;410.20;2099.20;;;;;;5093993;28;20111;-74
2021/05/27 05:55:37;;;;;;;9.75;5.70;;;410.40;2073.60;;;;;;5093786;28;20024;-73
2021/05/27 05:58:04;;;;;;;8.27;5.28;;;410.40;2073.60;;;;;;5093888;28;20032;-69
2021/05/27 06:00:31;;;;;;;8.05;5.25;;;435.20;2048.00;;;;;;5093537;28;20043;-71
2021/05/27 06:02:56;;;;;;;7.13;4.90;;;435.30;2022.40;;;;;;5093874;28;20026;-74
2021/05/27 06:05:22;;;;;;;8.13;4.90;;;435.40;2048.00;;;;;;5093667;28;20115;-73
2021/05/27 06:07:48;;;;;;;8.48;4.18;;;435.50;1996.80;;;;;;5093764;28;20073;-70
2021/05/27 06:10:14;;;;;;;9.20;4.30;;;435.70;1971.20;;;;;;5093682;28;20028;-73
2021/05/27 06:12:39;;;;;;;7.40;4.43;;;435.80;1971.20;;;;;;5093391;28;20024;-73
2021/05/27 06:15:07;;;;;;;7.05;4.43;;;436.00;1996.80;;;;;;5093554;28;20121;-72
2021/05/27 06:17:32;;;;;;;6.72;4.15;;;460.80;1971.20;;;;;;5093455;28;20040;-73
2021/05/27 06:19:58;;;;;;;7.03;4.00;;;461.00;1971.20;;;;;;5093546;28;20024;-73
2021/05/27 06:22:24;;;;;;;13.05;3.88;;;461.10;1920.00;;;;;;5093599;28;20441;-74
2021/05/27 06:24:49;;;;;;;7.53;3.88;;;461.30;1920.00;;;;;;5093715;28;20032;-73
2021/05/27 06:27:15;;;;;;;7.20;3.80;;;461.50;1920.00;;;;;;5093688;28;20029;-73
2021/05/27 06:29:41;;;;;;;6.57;3.65;;;461.70;1894.40;;;;;;5093332;28;20100;-70
2021/05/27 06:32:07;;;;;;;5.63;3.45;;;486.40;1868.80;;;;;;5091840;28;20469;-75
2021/05/27 06:34:33;;;;;;;4.72;3.10;;;486.60;1843.20;;;;;;5093590;28;20388;-75
2021/05/27 06:36:58;;;;;;;5.65;2.90;;;486.70;1817.60;;;;;;5093400;28;20020;-74
2021/05/27 06:39:24;;;;;;;10.07;3.30;;;486.70;1766.40;;;;;;5096789;28;20034;-71
2021/05/27 06:41:50;;;;;;;5.82;3.08;;;486.70;1740.80;;;;;;5097507;28;20038;-74
2021/05/27 06:44:16;;;;;;;9.05;2.80;;;486.90;1740.80;;;;;;5097428;28;20456;-71
2021/05/27 06:46:41;;;;;;;8.25;2.60;;;486.90;1715.20;;;;;;5097166;28;20454;-73
2021/05/27 06:49:07;;;;;;;7.95;2.67;;;487.00;1715.20;;;;;;5096711;28;20107;-73
2021/05/27 06:51:34;;;;;;;6.50;2.90;;;487.10;1715.20;;;;;;5097309;28;20098;-73
2021/05/27 06:53:59;;;;;;;5.75;2.85;;;487.20;1689.60;;;;;;5097279;28;20488;-71
2021/05/27 06:56:25;;;;;;;8.88;3.22;;;487.30;1664.00;;;;;;5097264;28;20027;-72
2021/05/27 06:58:51;;;;;;;7.80;3.00;;;512.00;1664.00;;;;;;5096714;28;20020;-75
2021/05/27 07:01:16;;;;;;;7.32;3.30;;;512.20;1664.00;;;;;;5096886;28;20031;-74
2021/05/27 07:03:43;;;;;;;8.77;2.80;;;512.30;1638.40;;;;;;5097029;28;20039;-71
2021/05/27 07:06:09;;;;;;;4.63;2.90;;;512.40;1561.60;;;;;;5096855;28;20458;-73
2021/05/27 07:08:36;;;;;;;6.10;2.97;;;512.40;1587.20;;;;;;5096913;28;20085;-73
2021/05/27 07:11:02;;;;;;;5.13;2.30;;;512.70;1587.20;;;;;;5096824;28;20047;-72
2021/05/27 07:13:28;;;;;;;6.13;2.65;;;512.80;1459.20;;;;;;5096769;28;20052;-70
2021/05/27 07:15:53;;;;;;;3.58;2.00;;;512.80;1459.20;;;;;;5096694;28;20027;-72
2021/05/27 07:18:19;;;;;;;3.83;2.17;;;537.60;1484.80;;;;;;5096545;28;20048;-70
2021/05/27 07:20:45;;;;;;;4.07;2.20;;;537.80;1459.20;;;;;;5096853;28;20054;-74
2021/05/27 07:23:11;;;;;;;5.10;2.50;;;537.90;1459.20;;;;;;5096603;28;20028;-75
2021/05/27 07:25:37;;;;;;;6.97;2.10;;;538.00;1459.20;;;;;;5096625;28;20076;-76
2021/05/27 07:28:03;;;;;;;7.65;2.20;;;538.10;1459.20;;;;;;5096633;28;20507;-76
2021/05/27 07:30:29;;;;;;;5.57;2.10;;;538.40;1433.60;;;;;;5094342;28;20048;-76
2021/05/27 07:32:56;;;;;;;5.40;1.92;;;538.50;1408.00;;;;;;5096445;28;20099;-76
2021/05/27 07:35:25;;;;;;;6.13;2.10;;;563.20;1382.40;;;;;;5096187;28;20035;-75
2021/05/27 07:37:51;;;;;;;4.43;1.83;;;563.30;1331.20;;;;;;5096494;28;20024;-73
2021/05/27 07:40:17;;;;;;;4.60;1.63;;;563.50;1382.40;;;;;;5096310;28;20098;-71
2021/05/27 07:42:43;;;;;;;3.83;1.70;;;563.60;1356.80;;;;;;5096060;28;20032;-72
2021/05/27 07:45:09;;;;;;;3.45;1.92;;;563.90;1254.40;;;;;;5095888;28;20085;-71
2021/05/27 07:47:35;;;;;;;4.53;2.25;;;563.90;1280.00;;;;;;5096157;28;20032;-70
2021/05/27 07:50:01;;;;;;;3.80;1.95;;;564.10;1254.40;;;;;;5094773;28;20031;-70
2021/05/27 07:52:29;;;;;;;3.67;1.60;;;588.90;1254.40;;;;;;5096184;28;20024;-71
2021/05/27 07:54:55;;;;;;;4.40;1.40;;;589.00;1254.40;;;;;;5096234;28;20030;-70
2021/05/27 07:57:21;;;;;;;4.93;1.55;;;589.20;1203.20;;;;;;5096012;28;20102;-70
2021/05/27 07:59:47;;;;;;;4.93;2.05;;;589.40;1177.60;;;;;;5095916;28;20026;-69
2021/05/27 08:02:13;;;;;;;3.08;1.60;;;589.40;1152.00;;;;;;5095600;28;20504;-70
2021/05/27 08:04:42;;;;;;;5.55;1.67;;;589.60;1152.00;;;;;;5095557;28;20040;-67
2021/05/27 08:07:11;;;;;;;2.72;1.30;;;589.70;1152.00;;;;;;5095950;28;20023;-71
2021/05/27 08:09:37;;;;;;;4.85;1.60;;;614.50;1126.40;;;;;;5095509;28;20027;-71
2021/05/27 08:12:04;;;;;;;3.78;2.08;;;614.50;1100.80;;;;;;5095743;28;20099;-70
2021/05/27 08:14:29;;;;;;;5.45;1.50;;;614.60;1075.20;;;;;;5095635;28;20028;-70
2021/05/27 08:16:55;;;;;;;2.38;1.20;;;614.90;1024.00;;;;;;5095413;28;20070;-71
2021/05/27 08:19:21;;;;;;;4.18;1.23;;;615.20;1024.00;;;;;;5095353;28;20024;-71
2021/05/27 08:21:46;;;;;;;3.80;1.25;;;615.20;998.40;;;;;;5095212;28;20027;-71
2021/05/27 08:24:12;;;;;;;3.88;1.35;;;640.20;972.80;;;;;;5095132;28;20040;-71
2021/05/27 08:26:38;;;;;;;3.58;1.40;;;640.40;972.80;;;;;;5095306;28;20047;-70
2021/05/27 08:29:04;;;;;;;3.45;1.50;;;640.40;972.80;;;;;;5095226;28;20390;-71
2021/05/27 08:31:33;;;;;;;5.40;1.50;;;640.60;972.80;;;;;;5095173;28;20055;-72
2021/05/27 08:33:59;;;;;;;4.25;1.70;;;640.80;947.20;;;;;;5093760;28;20032;-72
2021/05/27 08:36:25;;;;;;;2.17;1.20;;;665.60;972.80;;;;;;5095342;28;20030;-72
2021/05/27 08:38:50;;;;;;;2.88;1.40;;;665.80;972.80;;;;;;5094972;28;20457;-72
2021/05/27 08:41:20;;;;;;;3.47;1.40;;;666.20;972.80;;;;;;5095142;28;20027;-71
2021/05/27 08:43:49;;;;;;;6.15;1.27;;;691.20;921.60;;;;;;5094951;28;20032;-70
2021/05/27 08:46:16;;;;;;;4.65;1.40;;;691.50;870.40;;;;;;5094800;28;20428;-70
2021/05/27 08:48:43;;;;;;;4.15;1.40;;;691.60;844.80;;;;;;5095010;28;20047;-70
2021/05/27 08:51:10;;;;;;;3.70;1.60;;;691.50;870.40;;;;;;5095026;28;20047;-70
2021/05/27 08:53:35;;;;;;;2.13;1.35;;;691.60;819.20;;;;;;5094708;28;20111;-69
2021/05/27 08:56:01;;;;;;;2.65;1.30;;;691.60;844.80;;;;;;5094788;28;20058;-63
2021/05/27 08:58:27;;;;;;;3.00;1.25;;;691.70;793.60;;;;;;5094501;28;20062;-64
2021/05/27 09:00:53;;;;;;;2.63;1.30;;;691.70;819.20;;;;;;5094300;28;20035;-63
2021/05/27 09:03:19;;;;;;;3.80;1.25;;;692.00;819.20;;;;;;5084623;28;20536;-63
2021/05/27 09:05:45;;;;;;;3.83;1.20;;;716.80;819.20;;;;;;5082532;28;20653;-62
2021/05/27 09:08:33;;;;;;;2.75;1.20;;;716.90;793.60;;;;;;5083844;28;20115;-66
2021/05/27 09:11:12;;;;;;;2.75;1.35;;;717.20;793.60;;;;;;5081237;28;20017;-63
2021/05/27 09:13:55;;;;;;;1.85;1.15;;;717.50;793.60;;;;;;5080700;28;20039;-63
2021/05/27 09:16:21;;;;;;;4.35;1.20;;;717.50;793.60;;;;;;5081279;28;20032;-63
2021/05/27 09:18:47;;;;;;;4.07;1.25;;;742.50;793.60;;;;;;5083176;28;20099;-63
2021/05/27 09:21:15;;;;;;;1.98;1.10;;;742.70;793.60;;;;;;5083877;28;20103;-63
2021/05/27 09:23:51;;;;;;;3.53;1.30;;;742.70;716.80;;;;;;5083095;28;20064;-63
2021/05/27 09:26:19;;;;;;;3.92;1.30;;;717.20;742.40;;;;;;5081678;28;20028;-63
2021/05/27 09:28:46;;;;;;;4.88;1.20;;;717.30;742.40;;;;;;5088145;28;20032;-62
2021/05/27 09:31:15;;;;;;;3.33;1.70;;;717.40;742.40;;;;;;5093865;28;20154;-63
2021/05/27 09:33:46;;;;;;;2.72;1.23;;;717.60;768.00;;;;;;5094123;28;20089;-64
2021/05/27 09:36:13;;;;;;;2.15;1.20;;;717.70;793.60;;;;;;5094350;28;20099;-63
2021/05/27 09:38:44;;;;;;;3.58;1.20;;;717.40;742.40;;;;;;5094146;28;20370;-62
2021/05/27 09:41:15;;;;;;;3.38;1.05;;;742.40;768.00;;;;;;5093792;28;20096;-62
2021/05/27 09:43:42;;;;;;;3.33;1.30;;;742.50;742.40;;;;;;5093933;28;20036;-62
2021/05/27 09:46:08;;;;;;;4.63;1.50;;;717.50;742.40;;;;;;5093668;28;20485;-63
2021/05/27 09:48:35;;;;;;;4.25;1.20;;;717.60;742.40;;;;;;5093911;28;20028;-63
2021/05/27 09:51:01;;;;;;;3.63;1.20;;;717.40;768.00;;;;;;5089727;28;20531;-62
2021/05/27 09:53:31;;;;;;;3.95;1.50;;;717.70;742.40;;;;;;5083175;28;20139;-63
2021/05/27 09:55:58;;;;;;;3.67;1.17;;;717.40;742.40;;;;;;5080529;28;20039;-64
2021/05/27 09:58:25;;;;;;;2.10;1.10;;;717.50;768.00;;;;;;5081882;28;20018;-65
2021/05/27 10:00:52;;;;;;;1.73;1.05;;;717.70;768.00;;;;;;5082372;28;20028;-67
2021/05/27 10:03:30;;;;;;;2.95;1.23;;;717.30;742.40;;;;;;5083077;28;20059;-63
2021/05/27 10:05:57;;;;;;;3.22;1.40;;;717.70;716.80;;;;;;5083294;28;20028;-62
2021/05/27 10:08:23;;;;;;;2.03;0.90;;;717.60;742.40;;;;;;5078209;28;20029;-62
2021/05/27 10:10:50;;;;;;;3.13;1.20;;;742.50;793.60;;;;;;5082033;28;20020;-63
2021/05/27 10:13:18;;;;;;;2.30;1.20;;;742.60;768.00;;;;;;5071085;28;20024;-62
2021/05/27 10:15:46;;;;;;;2.65;1.20;;;742.70;768.00;;;;;;5085414;28;20024;-62
2021/05/27 10:18:19;;;;;;;2.17;1.10;;;742.90;716.80;;;;;;5084445;28;20553;-62
2021/05/27 10:20:46;;;;;;;3.90;1.20;;;743.00;716.80;;;;;;5065452;28;20078;-62
2021/05/27 10:23:13;;;;;;;2.08;1.20;;;743.20;716.80;;;;;;5086115;28;20478;-61
2021/05/27 10:25:39;;;;;;;3.67;1.30;;;768.00;716.80;;;;;;5084871;28;20036;-64
2021/05/27 10:28:10;;;;;;;3.05;1.20;;;768.20;716.80;;;;;;5086847;28;20021;-64
2021/05/27 10:30:43;;;;;;;2.45;1.10;;;743.00;716.80;;;;;;5085432;28;20055;-64
2021/05/27 10:36:10;;;;;;;3.15;1.20;;;743.10;716.80;;;;;;5833195;22;20065;-62
2021/05/27 10:38:39;;;;;;;3.55;1.30;;;742.40;716.80;;;;;;5052525;28;20439;-62
2021/05/27 10:41:12;;;;;;;2.15;1.13;;;743.10;716.80;;;;;;5055457;28;20017;-61
2021/05/27 10:44:03;;;;;;;2.80;1.00;;;768.00;716.80;;;;;;5056901;28;20037;-62
2021/05/27 10:46:32;;;;;;;4.45;1.30;;;768.40;716.80;;;;;;5056744;28;20351;-62
2021/05/27 10:48:58;;;;;;;3.20;1.35;;;768.70;665.60;;;;;;5056908;28;20017;-61
2021/05/27 10:54:07;;;;;;;3.47;1.23;;;768.80;614.40;;;;;;5055419;28;20111;-61
2021/05/27 10:56:37;;;;;;;2.42;1.00;;;768.80;640.00;;;;;;5055141;28;20083;-61
2021/05/27 10:59:03;;;;;;;3.60;1.30;;;793.60;716.80;;;;;;5055331;28;20017;-64
2021/05/27 11:01:33;;;;;;;3.75;1.30;;;768.80;640.00;;;;;;5036941;28;20118;-61
2021/05/27 11:04:00;;;;;;;1.80;1.20;;;768.60;614.40;;;;;;5055087;28;20377;-61
2021/05/27 11:06:27;;;;;;;3.17;1.45;;;768.70;665.60;;;;;;5055566;28;20094;-61
2021/05/27 11:09:11;;;;;;;2.33;1.05;;;768.80;665.60;;;;;;5056855;28;20074;-61
2021/05/27 11:11:39;;;;;;;3.72;1.20;;;768.90;665.60;;;;;;5057005;28;20021;-63
2021/05/27 11:14:17;;;;;;;3.17;1.30;;;793.70;716.80;;;;;;5056564;28;20037;-62
2021/05/27 11:17:01;;;;;;;2.28;1.20;;;768.70;614.40;;;;;;5056595;28;20021;-64
2021/05/27 11:22:32;;;;;;;2.63;1.10;;;768.80;665.60;;;;;;4994715;28;20078;-62
2021/05/27 11:25:11;;;;;;;4.78;1.48;;;768.80;640.00;;;;;;4994950;28;20050;-63
2021/05/27 11:27:40;;;;;;;2.85;1.20;;;768.90;640.00;;;;;;4995035;28;20106;-62
2021/05/27 11:35:17;;;;;;;2.95;1.17;;;794.30;640.00;;;;;;5551431;22;20065;-56
2021/05/27 11:37:44;;;;;;;2.90;1.15;;;794.40;691.20;;;;;;5037078;28;20084;-56
2021/05/27 11:40:13;;;;;;;3.42;1.25;;;819.20;665.60;;;;;;5029721;28;20028;-60
2021/05/27 11:42:39;;;;;;;2.20;1.27;;;819.20;614.40;;;;;;5045806;28;20056;-59
2021/05/27 11:45:08;;;;;;;4.22;1.20;;;793.60;665.60;;;;;;5054533;28;20033;-58
2021/05/27 11:47:34;;;;;;;4.45;1.30;;;793.70;665.60;;;;;;5054353;28;20017;-60
2021/05/27 11:50:01;;;;;;;2.05;1.17;;;794.10;665.60;;;;;;5054191;28;20021;-57
2021/05/27 11:52:26;;;;;;;2.63;1.13;;;793.70;640.00;;;;;;5053998;28;20033;-58
2021/05/27 11:54:53;;;;;;;2.83;1.20;;;793.90;640.00;;;;;;5054435;28;20116;-60
2021/05/27 11:57:20;;;;;;;5.57;1.58;;;793.60;665.60;;;;;;5054093;28;20029;-60
2021/05/27 12:00:02;;;;;;;3.65;1.33;;;743.00;691.20;;;;;;5054296;28;20028;-59
2021/05/27 12:02:48;;;;;;;4.43;1.25;;;742.90;742.40;;;;;;5051338;28;20031;-60
2021/05/27 12:05:35;;;;;;;3.55;1.20;;;743.20;768.00;;;;;;5055257;28;20062;-59
2021/05/27 12:08:10;;;;;;;2.95;1.30;;;768.20;691.20;;;;;;5054110;28;20113;-59
2021/05/27 12:10:38;;;;;;;3.53;1.40;;;768.40;691.20;;;;;;5053751;28;20025;-59
2021/05/27 12:13:15;;;;;;;3.20;1.30;;;743.10;716.80;;;;;;5054034;28;20112;-59
2021/05/27 12:15:44;;;;;;;3.50;1.00;;;743.20;691.20;;;;;;5051216;28;20470;-59
2021/05/27 12:18:18;;;;;;;2.55;1.40;;;743.30;691.20;;;;;;5053301;28;20029;-57
2021/05/27 12:20:48;;;;;;;1.90;1.10;;;768.20;691.20;;;;;;5050467;28;20033;-60
2021/05/27 12:23:16;;;;;;;4.60;1.20;;;768.50;716.80;;;;;;5054624;28;20033;-58
2021/05/27 12:25:44;;;;;;;2.42;1.17;;;768.90;691.20;;;;;;5055191;28;20029;-60
2021/05/27 12:28:21;;;;;;;5.30;1.30;;;793.60;691.20;;;;;;5054795;28;20462;-57
2021/05/27 12:30:55;;;;;;;2.17;1.00;;;768.90;716.80;;;;;;5055022;28;20028;-60
2021/05/27 12:33:29;;;;;;;3.00;1.10;;;768.90;665.60;;;;;;5046636;28;20032;-59
2021/05/27 12:35:57;;;;;;;2.75;1.20;;;793.60;742.40;;;;;;5034266;28;20045;-57
2021/05/27 12:38:28;;;;;;;2.92;1.40;;;793.60;716.80;;;;;;5035016;28;20383;-59
2021/05/27 12:41:06;;;;;;;1.30;1.20;;;793.90;716.80;;;;;;5034693;28;20029;-57
2021/05/27 12:43:33;;;;;;;4.60;1.20;;;794.10;742.40;;;;;;5034885;28;20462;-58
2021/05/27 12:46:00;;;;;;;3.03;1.00;;;794.40;716.80;;;;;;5017000;28;20490;-58
2021/05/27 12:48:31;;;;;;;3.05;1.30;;;819.20;665.60;;;;;;5034442;28;20033;-57
2021/05/27 12:51:04;;;;;;;2.83;1.20;;;819.20;691.20;;;;;;5051222;28;20357;-57
2021/05/27 12:53:37;;;;;;;2.83;1.10;;;794.50;691.20;;;;;;5054190;28;20115;-57
2021/05/27 12:56:12;;;;;;;4.60;1.20;;;794.40;691.20;;;;;;5035675;28;20029;-60
2021/05/27 12:58:48;;;;;;;2.15;1.10;;;794.20;691.20;;;;;;5033553;28;20039;-58
2021/05/27 13:01:16;;;;;;;2.47;1.10;;;794.20;691.20;;;;;;5034139;28;20514;-57